Time;durP1;ratioP1;P1;durP2;ratioP2;P2;SDS_P1;SDS_P2;PMS_P1;PMS_P2;Temp;Humidity;BMP_temperature;BMP_pressure;BME280_temperature;BME280_humidity;BME280_pressure;Samples;Min_cycle;Max_cycle;Signal;HPM_P1;HPM_P2
2023/06/01 00:00:58;;;;;;;7.25;5.90;;;;;;;19.55;52.73;95663.16;5050802;28;20186;-86
2023/06/01 00:03:26;;;;;;;7.40;5.70;;;;;;;19.51;51.95;95665.44;5050450;28;20274;-88
2023/06/01 00:05:52;;;;;;;6.93;5.28;;;;;;;19.43;52.05;95675.41;5052072;28;20698;-85
2023/06/01 00:08:20;;;;;;;5.80;5.25;;;;;;;19.47;52.03;95668.69;5059714;28;20647;-85
2023/06/01 00:10:46;;;;;;;9.10;5.43;;;;;;;19.40;51.92;95668.81;5058943;28;20617;-86
2023/06/01 00:13:13;;;;;;;8.65;5.72;;;;;;;19.41;52.33;95669.63;5060464;28;20220;-85
2023/06/01 00:15:39;;;;;;;5.97;5.10;;;;;;;19.28;52.24;95663.59;5059214;28;20222;-85
2023/06/01 00:18:06;;;;;;;8.20;5.57;;;;;;;19.26;52.30;95668.25;5058836;28;20229;-86
2023/06/01 00:20:33;;;;;;;9.02;5.28;;;;;;;19.28;52.34;95666.22;5059118;28;20216;-87
2023/06/01 00:23:00;;;;;;;6.35;5.10;;;;;;;19.33;52.29;95665.53;5058542;28;20209;-86
2023/06/01 00:25:26;;;;;;;7.43;5.03;;;;;;;19.39;52.07;95666.44;5055632;28;20225;-86
2023/06/01 00:27:53;;;;;;;6.57;5.63;;;;;;;19.23;52.60;95666.13;5055830;28;20198;-85
2023/06/01 00:30:19;;;;;;;6.70;4.78;;;;;;;19.07;52.50;95666.78;5055766;28;20186;-85
2023/06/01 00:32:47;;;;;;;5.78;4.97;;;;;;;19.13;52.40;95663.28;5055116;28;20212;-86
2023/06/01 00:35:14;;;;;;;5.70;5.20;;;;;;;19.22;52.80;95658.53;5053582;28;20746;-87
2023/06/01 00:37:41;;;;;;;8.75;5.22;;;;;;;19.19;52.50;95656.38;5050536;28;20217;-86
2023/06/01 00:40:09;;;;;;;8.27;5.70;;;;;;;19.10;52.52;95666.34;5050782;28;20201;-88
2023/06/01 00:42:35;;;;;;;7.55;4.97;;;;;;;19.09;52.58;95651.69;5050505;28;20690;-86
2023/06/01 00:45:01;;;;;;;6.75;5.18;;;;;;;19.15;52.43;95650.81;5050722;28;20218;-86
2023/06/01 00:47:28;;;;;;;5.63;4.90;;;;;;;19.14;52.64;95664.06;5058498;28;20189;-89
2023/06/01 00:49:54;;;;;;;6.18;5.22;;;;;;;19.11;52.80;95654.88;5036177;28;20198;-87
2023/06/01 00:52:23;;;;;;;5.88;5.28;;;;;;;19.14;52.77;95653.63;5056253;28;20193;-85
2023/06/01 00:54:50;;;;;;;6.22;5.43;;;;;;;19.15;52.96;95655.22;5054819;28;20228;-86
2023/06/01 00:57:17;;;;;;;6.53;5.30;;;;;;;19.02;53.05;95661.47;5054734;28;20225;-86
2023/06/01 00:59:44;;;;;;;5.68;4.90;;;;;;;19.01;53.39;95653.88;5054245;28;20197;-86
2023/06/01 01:02:15;;;;;;;7.00;5.63;;;;;;;19.06;53.06;95644.31;5055776;28;20189;-86
2023/06/01 01:04:42;;;;;;;5.55;5.05;;;;;;;18.98;53.83;95658.53;5058369;28;20237;-85
2023/06/01 01:07:20;;;;;;;6.88;4.93;;;;;;;18.91;54.12;95652.59;5058064;28;20201;-86
2023/06/01 01:09:54;;;;;;;5.72;5.18;;;;;;;18.87;54.21;95664.50;5058011;28;20204;-85
2023/06/01 01:12:25;;;;;;;8.38;5.60;;;;;;;18.85;53.94;95658.75;5057508;28;20797;-87
2023/06/01 01:14:58;;;;;;;6.05;5.25;;;;;;;18.85;53.88;95657.97;5058463;28;20216;-84
2023/06/01 01:17:32;;;;;;;8.90;5.35;;;;;;;18.80;54.05;95652.63;5058407;28;20255;-86
2023/06/01 01:20:08;;;;;;;7.68;5.50;;;;;;;18.80;54.05;95650.00;5056144;28;20205;-86
2023/06/01 01:23:06;;;;;;;6.18;5.57;;;;;;;18.79;54.46;95656.25;5057007;28;20204;-86
2023/06/01 01:26:00;;;;;;;6.70;5.25;;;;;;;18.79;54.39;95648.41;5058218;28;20220;-86
2023/06/01 01:28:34;;;;;;;6.35;5.05;;;;;;;18.84;54.43;95649.34;5056613;28;20197;-85
2023/06/01 01:31:03;;;;;;;6.40;5.30;;;;;;;18.86;54.31;95646.47;5057191;28;20182;-87
2023/06/01 01:33:32;;;;;;;5.68;5.15;;;;;;;18.87;53.85;95645.44;5058271;28;20194;-85
2023/06/01 01:36:00;;;;;;;6.15;5.07;;;;;;;18.87;54.43;95650.66;5053537;28;20610;-85
2023/06/01 01:38:26;;;;;;;6.00;5.45;;;;;;;18.89;54.14;95656.47;5053695;28;20228;-86
2023/06/01 01:40:53;;;;;;;7.32;5.32;;;;;;;18.83;54.55;95655.56;5053533;28;20193;-86
2023/06/01 01:43:20;;;;;;;6.78;5.65;;;;;;;18.65;55.01;95644.44;5054607;28;20251;-86
2023/06/01 01:45:58;;;;;;;8.45;5.75;;;;;;;18.47;55.97;95645.28;5057041;28;20217;-86
2023/06/01 01:48:31;;;;;;;6.82;5.50;;;;;;;18.49;55.69;95649.25;5075548;28;20203;-86
2023/06/01 01:51:02;;;;;;;6.70;5.80;;;;;;;18.49;55.62;95656.25;5056097;28;20216;-86
2023/06/01 01:53:31;;;;;;;6.22;5.63;;;;;;;18.43;56.06;95655.38;5074897;28;20209;-86
2023/06/01 01:55:59;;;;;;;6.72;5.90;;;;;;;18.34;55.74;95655.91;5074832;28;20216;-86
2023/06/01 01:58:26;;;;;;;6.90;5.70;;;;;;;18.29;56.45;95652.13;5075671;28;20282;-85
2023/06/01 02:00:57;;;;;;;7.55;6.00;;;;;;;18.30;56.03;95658.94;5068066;28;20287;-86
2023/06/01 02:03:23;;;;;;;6.47;5.75;;;;;;;18.21;56.49;95657.69;5049785;28;20197;-85
2023/06/01 02:05:50;;;;;;;6.28;5.43;;;;;;;18.28;56.19;95660.97;5049260;28;20217;-87
2023/06/01 02:08:19;;;;;;;6.47;5.72;;;;;;;18.25;56.79;95664.06;5049366;28;20197;-86
2023/06/01 02:10:46;;;;;;;6.20;5.35;;;;;;;18.23;56.48;95654.84;5048309;28;20206;-86
2023/06/01 02:13:12;;;;;;;6.30;5.22;;;;;;;18.26;56.90;95652.59;5049578;28;20201;-86
2023/06/01 02:15:39;;;;;;;7.38;5.47;;;;;;;18.26;56.09;95654.41;5049996;28;20218;-88
2023/06/01 02:18:07;;;;;;;6.30;5.70;;;;;;;18.21;57.06;95652.47;5049532;28;20236;-86
2023/06/01 02:20:34;;;;;;;6.45;5.65;;;;;;;18.15;56.63;95661.16;5043937;28;20193;-86
2023/06/01 02:23:00;;;;;;;6.93;5.80;;;;;;;18.01;56.76;95651.16;5042161;28;20216;-86
2023/06/01 02:25:27;;;;;;;6.18;5.57;;;;;;;17.93;57.72;95649.63;5046980;28;20248;-86
2023/06/01 02:27:53;;;;;;;6.00;5.40;;;;;;;17.87;57.76;95658.34;5051095;28;20288;-86
2023/06/01 02:30:20;;;;;;;5.70;5.10;;;;;;;17.90;56.93;95650.88;5052925;28;20194;-85
2023/06/01 02:32:48;;;;;;;5.82;5.28;;;;;;;17.95;56.78;95651.00;5046210;28;20193;-86
2023/06/01 02:35:16;;;;;;;5.70;5.07;;;;;;;17.93;57.47;95650.44;5052573;28;20283;-86
2023/06/01 02:37:42;;;;;;;6.00;5.40;;;;;;;17.89;58.07;95651.13;5053146;28;20217;-88
2023/06/01 02:40:11;;;;;;;6.47;5.88;;;;;;;17.86;57.80;95644.53;5052118;28;20201;-86
2023/06/01 02:42:37;;;;;;;6.78;5.93;;;;;;;17.85;57.72;95652.56;5053977;28;20193;-86
2023/06/01 02:45:05;;;;;;;8.15;5.45;;;;;;;17.80;57.40;95642.00;5053865;28;20292;-85
2023/06/01 02:47:31;;;;;;;6.03;5.45;;;;;;;17.77;58.20;95650.25;5052969;28;20204;-85
2023/06/01 02:49:58;;;;;;;6.25;5.65;;;;;;;17.75;57.88;95647.84;5052086;28;20193;-87
2023/06/01 02:52:26;;;;;;;6.75;5.60;;;;;;;17.80;57.71;95649.81;5064670;28;20239;-86
2023/06/01 02:54:52;;;;;;;6.80;5.43;;;;;;;17.72;57.71;95644.91;5056718;28;20213;-87
2023/06/01 02:57:18;;;;;;;7.00;6.40;;;;;;;17.69;57.81;95647.97;5053332;28;20590;-87
2023/06/01 02:59:45;;;;;;;7.45;6.68;;;;;;;17.50;58.84;95647.94;5052681;28;20534;-87
2023/06/01 03:02:11;;;;;;;7.45;6.63;;;;;;;17.46;58.65;95648.59;5052463;28;20197;-86
2023/06/01 03:04:38;;;;;;;8.27;6.75;;;;;;;17.39;58.71;95640.06;5052604;28;20209;-86
2023/06/01 03:07:06;;;;;;;7.80;7.00;;;;;;;17.42;59.02;95642.22;5052649;28;20197;-85
2023/06/01 03:09:34;;;;;;;9.30;7.28;;;;;;;17.41;58.91;95645.84;5052406;28;20240;-88
2023/06/01 03:12:02;;;;;;;7.80;6.03;;;;;;;17.48;59.27;95647.38;5052774;28;20722;-85
2023/06/01 03:14:28;;;;;;;8.90;6.60;;;;;;;17.50;58.84;95647.16;5053103;28;20592;-87
2023/06/01 03:16:54;;;;;;;8.18;6.38;;;;;;;17.53;58.76;95644.09;5051750;28;20318;-86
2023/06/01 03:19:21;;;;;;;7.20;6.00;;;;;;;17.44;58.81;95648.00;5051479;28;20200;-87
2023/06/01 03:21:48;;;;;;;7.07;5.93;;;;;;;17.34;59.71;95653.72;5052115;28;20202;-87
2023/06/01 03:24:14;;;;;;;6.28;5.43;;;;;;;17.40;59.25;95652.06;5052618;28;20300;-86
2023/06/01 03:26:42;;;;;;;6.85;6.20;;;;;;;17.49;59.00;95656.78;5061545;28;20197;-85
2023/06/01 03:29:08;;;;;;;8.82;6.68;;;;;;;17.48;59.34;95657.78;5060798;28;20344;-85
2023/06/01 03:31:35;;;;;;;8.40;6.40;;;;;;;17.25;59.63;95649.81;5059744;28;20194;-85
2023/06/01 03:34:02;;;;;;;7.63;6.82;;;;;;;17.20;59.58;95647.06;5060089;28;20220;-85
2023/06/01 03:36:28;;;;;;;9.57;6.80;;;;;;;17.09;60.34;95653.78;5060667;28;20193;-85
2023/06/01 03:38:55;;;;;;;7.00;6.40;;;;;;;17.09;59.95;95651.19;5059024;28;20224;-85
2023/06/01 03:41:21;;;;;;;6.97;6.32;;;;;;;17.07;60.27;95663.59;5068288;28;20189;-85
2023/06/01 03:43:49;;;;;;;8.23;6.43;;;;;;;17.14;60.41;95650.50;5063333;28;20194;-86
2023/06/01 03:46:17;;;;;;;9.10;6.30;;;;;;;17.14;60.84;95659.13;5055473;28;20189;-85
2023/06/01 03:48:43;;;;;;;7.18;5.78;;;;;;;17.20;60.00;95652.25;5037376;28;20203;-87
2023/06/01 03:51:10;;;;;;;6.90;6.20;;;;;;;17.22;59.84;95655.44;5052084;28;20198;-85
2023/06/01 03:53:37;;;;;;;8.45;6.93;;;;;;;17.22;60.61;95658.84;5069162;28;20197;-84
2023/06/01 03:56:03;;;;;;;7.78;6.20;;;;;;;17.24;60.34;95656.81;5062837;28;20263;-87
2023/06/01 03:58:30;;;;;;;9.82;6.80;;;;;;;17.24;60.04;95654.22;5064481;28;20310;-85
2023/06/01 04:00:59;;;;;;;10.27;6.53;;;;;;;17.26;60.09;95656.63;5063700;28;20263;-86
2023/06/01 04:03:26;;;;;;;9.85;6.88;;;;;;;17.31;59.72;95654.16;5063715;28;20270;-86
2023/06/01 04:05:58;;;;;;;16.10;7.50;;;;;;;17.39;60.36;95660.88;5064017;28;20244;-87
2023/06/01 04:08:25;;;;;;;28.48;9.38;;;;;;;17.47;59.67;95658.78;5061036;28;20186;-85
2023/06/01 04:10:52;;;;;;;33.33;9.80;;;;;;;17.51;59.81;95653.94;5059590;28;20220;-86
2023/06/01 04:13:18;;;;;;;32.78;9.15;;;;;;;17.49;60.02;95654.16;5060448;28;20205;-84
2023/06/01 04:15:46;;;;;;;24.45;8.68;;;;;;;17.56;59.99;95657.47;5056644;28;20213;-86
2023/06/01 04:18:14;;;;;;;14.63;6.90;;;;;;;17.67;59.66;95665.63;5055292;28;20603;-86
2023/06/01 04:20:40;;;;;;;10.52;6.72;;;;;;;17.71;59.39;95666.75;5058026;28;20190;-86
2023/06/01 04:23:07;;;;;;;9.50;6.03;;;;;;;17.77;59.37;95660.66;5059496;28;20205;-86
2023/06/01 04:25:37;;;;;;;6.70;5.90;;;;;;;17.74;58.61;95667.09;5058574;28;20213;-85
2023/06/01 04:28:05;;;;;;;7.80;6.13;;;;;;;17.78;58.72;95662.25;5056617;28;20190;-86
2023/06/01 04:30:32;;;;;;;6.82;6.13;;;;;;;17.88;58.82;95662.56;5056975;28;20190;-86
2023/06/01 04:32:59;;;;;;;8.85;6.28;;;;;;;17.91;58.90;95660.28;5057550;28;20201;-84
2023/06/01 04:35:27;;;;;;;11.20;6.55;;;;;;;17.95;58.70;95664.03;5058055;28;20225;-87
2023/06/01 04:37:54;;;;;;;10.40;6.38;;;;;;;17.98;59.11;95662.81;5057054;28;20231;-85
2023/06/01 04:40:21;;;;;;;7.55;5.97;;;;;;;18.07;58.28;95663.31;5056984;28;20200;-85
2023/06/01 04:42:48;;;;;;;7.35;5.72;;;;;;;18.14;58.06;95658.78;5057316;28;20208;-85
2023/06/01 04:45:15;;;;;;;8.20;5.75;;;;;;;18.24;58.35;95662.47;5056722;28;20292;-87
2023/06/01 04:47:44;;;;;;;11.20;6.13;;;;;;;18.38;57.91;95662.25;5057710;28;20261;-84
2023/06/01 04:50:12;;;;;;;6.75;5.90;;;;;;;18.46;57.89;95660.13;5057596;28;20494;-83
2023/06/01 04:52:41;;;;;;;8.05;6.22;;;;;;;18.56;57.44;95662.19;5072846;28;20193;-85
2023/06/01 04:55:09;;;;;;;6.80;5.60;;;;;;;18.63;57.87;95662.91;5071262;28;20217;-84
2023/06/01 04:57:36;;;;;;;7.07;6.35;;;;;;;18.66;57.32;95656.47;5060362;28;20201;-85
2023/06/01 05:00:06;;;;;;;7.47;5.75;;;;;;;18.74;57.48;95658.72;5059735;28;20223;-85
2023/06/01 05:02:32;;;;;;;9.18;6.15;;;;;;;18.83;57.72;95660.78;5060929;28;20197;-84
2023/06/01 05:04:59;;;;;;;6.95;6.03;;;;;;;18.90;57.33;95664.06;5054489;28;20216;-87
2023/06/01 05:22:42;;;;;;;6.85;6.03;;;;;;;19.01;55.67;95672.94;5114510;22;20231;-90
2023/06/01 05:25:10;;;;;;;8.13;5.82;;;;;;;19.03;55.50;95668.28;5024122;28;20217;-90
2023/06/01 05:27:37;;;;;;;7.50;5.18;;;;;;;19.18;54.91;95668.63;5095163;28;20232;-90
2023/06/01 05:30:07;;;;;;;8.77;5.80;;;;;;;19.33;54.47;95668.16;5100320;28;20187;-89
2023/06/01 05:32:34;;;;;;;18.67;6.85;;;;;;;19.16;56.10;95669.88;5100803;28;20192;-89
2023/06/01 05:35:00;;;;;;;7.40;5.75;;;;;;;19.27;53.69;95666.44;5102993;28;20311;-85
2023/06/01 05:37:27;;;;;;;14.38;12.85;;;;;;;19.27;54.18;95666.44;5103399;28;20218;-86
2023/06/01 05:39:55;;;;;;;17.05;13.85;;;;;;;19.35;54.32;95660.88;5106650;28;20220;-87
2023/06/01 05:42:23;;;;;;;8.70;7.80;;;;;;;19.54;53.55;95669.41;5104363;28;20204;-85
2023/06/01 05:44:50;;;;;;;6.25;5.65;;;;;;;19.57;53.59;95671.56;5102301;28;20253;-87
2023/06/01 05:47:16;;;;;;;9.30;5.78;;;;;;;19.61;53.16;95676.09;5104270;28;20206;-88
2023/06/01 05:49:43;;;;;;;7.63;5.72;;;;;;;19.72;53.60;95674.47;5095097;28;20685;-86
2023/06/01 06:03:47;;;;;;;6.95;5.80;;;;;;;19.76;51.50;95674.81;5061017;22;20224;-86
2023/06/01 06:06:13;;;;;;;6.95;5.43;;;;;;;19.84;51.81;95677.84;5039868;28;20220;-87
2023/06/01 06:08:40;;;;;;;6.85;5.45;;;;;;;19.82;51.73;95677.25;5039862;28;20209;-85
2023/06/01 06:11:06;;;;;;;9.73;6.10;;;;;;;19.74;51.68;95672.41;5035883;28;20194;-87
2023/06/01 06:13:33;;;;;;;14.77;12.57;;;;;;;19.77;51.54;95677.19;5050625;28;20217;-86
2023/06/01 06:15:59;;;;;;;13.32;11.02;;;;;;;19.86;51.28;95681.00;5055493;28;20213;-85
2023/06/01 06:18:26;;;;;;;7.28;6.20;;;;;;;19.79;50.53;95680.38;5056077;28;20267;-86
2023/06/01 06:20:54;;;;;;;8.60;6.75;;;;;;;19.70;51.50;95680.94;5050407;28;20205;-85
2023/06/01 06:23:20;;;;;;;9.05;7.75;;;;;;;19.80;51.41;95678.56;5055604;28;20197;-86
2023/06/01 06:25:48;;;;;;;10.35;6.70;;;;;;;19.79;51.38;95675.16;5055902;28;20260;-86
2023/06/01 06:28:14;;;;;;;7.63;6.38;;;;;;;19.89;51.92;95677.94;5055963;28;20227;-88
2023/06/01 06:30:41;;;;;;;7.93;6.60;;;;;;;19.89;52.34;95674.53;5051538;28;20201;-88
2023/06/01 06:33:08;;;;;;;7.63;6.43;;;;;;;20.04;52.38;95674.03;5050929;28;20209;-88
2023/06/01 06:35:34;;;;;;;7.82;6.30;;;;;;;20.04;52.44;95677.44;5051615;28;20217;-88
2023/06/01 06:38:02;;;;;;;8.15;6.78;;;;;;;20.07;51.38;95676.16;5052201;28;20198;-89
2023/06/01 06:40:28;;;;;;;10.45;6.88;;;;;;;20.09;51.90;95682.75;5050989;28;20207;-88
2023/06/01 06:42:55;;;;;;;11.85;6.75;;;;;;;20.02;51.68;95669.81;5050311;28;20190;-90
2023/06/01 06:45:22;;;;;;;6.75;6.05;;;;;;;20.11;51.92;95675.47;5051417;28;20601;-89
2023/06/01 06:47:48;;;;;;;7.85;6.18;;;;;;;20.08;50.63;95675.94;5051283;28;20190;-89
2023/06/01 06:50:16;;;;;;;8.25;5.55;;;;;;;20.27;50.62;95669.50;5050187;28;20209;-88
2023/06/01 06:52:43;;;;;;;7.00;6.20;;;;;;;20.37;50.82;95670.75;5051771;28;20194;-88
2023/06/01 06:55:11;;;;;;;8.60;6.53;;;;;;;20.22;50.91;95672.00;5050330;28;20210;-88
2023/06/01 06:57:39;;;;;;;6.45;5.30;;;;;;;20.15;51.42;95681.03;5050708;28;20200;-90
2023/06/01 07:00:07;;;;;;;8.80;5.72;;;;;;;20.24;51.76;95674.38;5050873;28;20232;-89
2023/06/01 07:02:34;;;;;;;11.35;5.95;;;;;;;20.40;51.70;95675.50;5045618;28;20628;-89
2023/06/01 07:05:22;;;;;;;11.20;6.40;;;;;;;20.66;50.71;95670.44;5041362;28;20244;-89
2023/06/01 07:07:48;;;;;;;6.70;6.10;;;;;;;20.76;51.14;95669.81;5044431;28;20212;-87
2023/06/01 07:19:35;;;;;;;8.80;6.90;;;;;;;21.07;49.96;95675.50;5059495;28;20228;-85
2023/06/01 07:22:01;;;;;;;8.63;5.88;;;;;;;21.06;49.27;95671.31;5058094;28;20239;-88
2023/06/01 07:24:28;;;;;;;7.60;5.70;;;;;;;21.13;49.62;95669.31;5061423;28;20239;-90
2023/06/01 07:27:03;;;;;;;7.50;5.50;;;;;;;21.16;49.64;95672.25;5061399;28;20206;-90
2023/06/01 07:29:30;;;;;;;7.57;5.53;;;;;;;21.23;50.09;95667.66;5059418;28;20228;-89
2023/06/01 07:31:57;;;;;;;5.82;5.18;;;;;;;21.42;49.86;95670.78;5057559;28;20223;-89
2023/06/01 07:34:25;;;;;;;8.18;5.63;;;;;;;21.48;49.52;95669.84;5050253;28;20186;-89
2023/06/01 07:37:04;;;;;;;8.50;5.53;;;;;;;21.69;49.57;95671.69;5045917;28;20659;-91
2023/06/01 07:39:30;;;;;;;7.03;5.35;;;;;;;21.88;49.14;95668.75;5035864;28;20755;-88
2023/06/01 07:41:57;;;;;;;7.53;6.15;;;;;;;21.92;48.57;95668.03;5036774;28;20244;-88
2023/06/01 07:53:44;;;;;;;5.78;5.15;;;;;;;22.36;47.81;95666.13;5051020;28;20212;-86
2023/06/01 07:56:11;;;;;;;6.80;5.50;;;;;;;22.44;47.14;95664.09;5053234;28;20275;-85
2023/06/01 07:58:38;;;;;;;8.27;5.65;;;;;;;22.50;46.29;95663.91;5056362;28;20227;-85
2023/06/01 08:01:04;;;;;;;6.07;5.47;;;;;;;22.56;46.75;95664.72;5053119;28;20220;-86
2023/06/01 08:10:39;;;;;;;8.63;5.68;;;;;;;22.58;45.16;95662.66;5048408;28;20332;-86
2023/06/01 08:16:27;;;;;;;8.30;5.72;;;;;;;22.84;45.62;95661.06;5051262;28;20216;-86
2023/06/01 08:19:03;;;;;;;9.63;5.72;;;;;;;23.04;45.29;95658.56;5055758;28;20213;-88
2023/06/01 08:21:29;;;;;;;6.38;5.70;;;;;;;23.19;46.24;95655.25;5054649;28;20201;-90
2023/06/01 08:23:56;;;;;;;6.78;5.22;;;;;;;23.35;44.46;95660.34;5055154;28;20205;-88
2023/06/01 08:26:25;;;;;;;9.43;5.38;;;;;;;23.44;44.72;95658.03;5057837;28;20213;-87
2023/06/01 08:28:52;;;;;;;9.20;6.03;;;;;;;23.57;44.66;95657.59;5058185;28;20204;-87
2023/06/01 08:31:19;;;;;;;21.65;19.45;;;;;;;23.70;44.63;95665.00;5060167;28;20201;-86
2023/06/01 08:33:46;;;;;;;12.05;10.45;;;;;;;23.88;43.26;95660.31;5061049;28;20280;-87
2023/06/01 08:36:12;;;;;;;8.38;7.00;;;;;;;24.04;43.65;95656.72;5060968;28;20283;-89
2023/06/01 08:38:39;;;;;;;11.52;6.10;;;;;;;24.14;43.27;95645.41;5059880;28;20205;-86
2023/06/01 08:41:18;;;;;;;5.75;5.20;;;;;;;24.04;42.65;95654.88;5060054;28;20197;-90
2023/06/01 08:43:52;;;;;;;6.22;5.63;;;;;;;24.00;42.42;95656.44;5061327;28;20209;-89
2023/06/01 08:46:21;;;;;;;6.30;5.28;;;;;;;24.21;42.63;95651.22;5064244;28;20214;-89
2023/06/01 08:48:50;;;;;;;6.45;5.75;;;;;;;24.09;42.15;95661.97;5062931;28;20208;-89
2023/06/01 08:51:17;;;;;;;5.97;5.38;;;;;;;23.86;42.48;95652.69;5050254;28;20226;-88
2023/06/01 08:53:45;;;;;;;6.07;5.57;;;;;;;23.98;42.20;95655.91;5074258;28;20209;-88
2023/06/01 08:56:12;;;;;;;5.60;5.05;;;;;;;24.07;41.78;95643.81;5051304;28;20220;-87
2023/06/01 08:58:40;;;;;;;6.25;5.10;;;;;;;24.11;41.67;95658.03;5060381;28;20217;-88
2023/06/01 09:01:08;;;;;;;7.30;5.25;;;;;;;24.30;42.44;95658.38;5059863;28;20285;-85
2023/06/01 09:03:35;;;;;;;7.38;5.75;;;;;;;24.47;41.23;95657.31;5013396;28;20242;-87
2023/06/01 09:06:03;;;;;;;6.75;5.22;;;;;;;24.71;42.13;95651.28;5022061;28;20218;-85
2023/06/01 09:08:30;;;;;;;7.60;5.57;;;;;;;24.88;41.71;95640.47;5011502;28;20270;-86
2023/06/01 09:10:59;;;;;;;9.65;5.90;;;;;;;24.94;41.72;95647.38;5027685;28;20205;-89
2023/06/01 09:13:33;;;;;;;5.78;5.07;;;;;;;25.01;41.64;95650.53;5017973;28;20198;-87
2023/06/01 09:15:59;;;;;;;8.32;5.78;;;;;;;25.21;40.83;95647.03;5021064;28;20219;-88
2023/06/01 09:18:27;;;;;;;6.05;5.53;;;;;;;25.23;40.37;95650.19;5023915;28;20205;-85
2023/06/01 09:20:56;;;;;;;7.00;5.45;;;;;;;25.07;40.65;95649.44;5017137;28;20226;-86
2023/06/01 09:23:27;;;;;;;5.63;5.13;;;;;;;25.27;40.82;95650.47;5014267;28;20219;-87
2023/06/01 09:26:06;;;;;;;5.68;5.15;;;;;;;25.30;40.46;95649.94;5014519;28;20216;-87
2023/06/01 09:28:53;;;;;;;7.35;5.63;;;;;;;25.24;39.27;95649.16;5006165;28;20237;-87
2023/06/01 09:31:35;;;;;;;6.60;5.40;;;;;;;25.38;40.60;95652.81;5013035;28;20198;-87
2023/06/01 09:34:04;;;;;;;9.50;5.38;;;;;;;25.51;40.41;95637.50;5013293;28;20628;-86
2023/06/01 09:36:31;;;;;;;9.38;8.45;;;;;;;25.52;39.58;95644.34;5012804;28;20618;-87
2023/06/01 09:39:01;;;;;;;7.35;6.28;;;;;;;25.56;39.13;95638.28;5012760;28;20225;-87
2023/06/01 09:41:31;;;;;;;8.88;5.68;;;;;;;25.50;38.86;95639.34;5012807;28;20239;-88
2023/06/01 09:43:57;;;;;;;5.90;5.38;;;;;;;25.47;39.18;95637.22;5012245;28;20249;-89
2023/06/01 09:46:24;;;;;;;5.80;5.28;;;;;;;25.69;40.13;95643.00;5012344;28;20214;-89
2023/06/01 09:49:07;;;;;;;6.50;5.32;;;;;;;25.80;40.18;95641.06;5017123;28;20263;-89
2023/06/01 09:51:37;;;;;;;6.00;5.50;;;;;;;25.86;38.43;95641.84;5013538;28;20234;-87
2023/06/01 09:54:03;;;;;;;7.15;5.68;;;;;;;25.93;38.38;95632.59;5007632;28;20209;-88
2023/06/01 09:56:43;;;;;;;6.07;5.38;;;;;;;26.05;38.67;95633.03;5012826;28;20222;-87
2023/06/01 09:59:09;;;;;;;5.82;5.22;;;;;;;26.19;37.58;95627.16;5015979;28;20314;-89
2023/06/01 10:01:36;;;;;;;5.72;5.22;;;;;;;26.27;38.45;95623.94;5012260;28;20191;-88
2023/06/01 10:04:09;;;;;;;6.13;5.28;;;;;;;26.25;37.83;95634.78;5013144;28;20206;-89
2023/06/01 10:06:40;;;;;;;5.47;5.05;;;;;;;26.09;38.75;95622.72;5013756;28;20226;-88
2023/06/01 10:09:18;;;;;;;5.57;5.07;;;;;;;26.20;38.12;95616.31;5014117;28;20261;-88
2023/06/01 10:11:44;;;;;;;6.95;5.47;;;;;;;26.06;38.34;95618.00;5012759;28;20870;-88
2023/06/01 10:14:11;;;;;;;6.60;5.32;;;;;;;26.27;38.44;95623.94;5012368;28;20191;-89
2023/06/01 10:16:39;;;;;;;7.00;5.28;;;;;;;26.21;38.46;95623.19;5012413;28;20226;-88
2023/06/01 10:19:08;;;;;;;6.55;5.43;;;;;;;26.22;38.64;95613.41;5011852;28;20203;-89
2023/06/01 10:21:34;;;;;;;5.80;5.30;;;;;;;26.17;37.38;95616.09;5012439;28;20207;-87
2023/06/01 10:24:01;;;;;;;6.10;5.30;;;;;;;26.26;37.42;95614.44;5011984;28;20207;-87
2023/06/01 10:26:29;;;;;;;5.43;4.93;;;;;;;26.53;37.48;95616.66;5011848;28;20219;-85
2023/06/01 10:28:56;;;;;;;8.07;5.20;;;;;;;26.81;37.01;95607.97;5013282;28;20210;-88
2023/06/01 10:31:36;;;;;;;5.57;5.05;;;;;;;27.01;37.13;95614.94;5012256;28;20203;-86
2023/06/01 10:34:03;;;;;;;5.75;5.07;;;;;;;26.91;37.20;95615.81;5012325;28;20203;-84
2023/06/01 10:37:07;;;;;;;6.95;5.50;;;;;;;27.15;35.35;95603.41;5013670;28;20237;-88
2023/06/01 10:39:35;;;;;;;5.75;5.22;;;;;;;27.20;35.57;95604.44;4993252;28;20233;-86
2023/06/01 10:42:37;;;;;;;6.03;5.00;;;;;;;27.41;35.27;95603.16;4992552;28;20203;-86
2023/06/01 10:45:06;;;;;;;6.65;5.13;;;;;;;27.47;34.79;95608.09;4990029;28;20552;-87
2023/06/01 10:47:48;;;;;;;5.93;5.43;;;;;;;27.15;35.92;95597.34;5007519;28;20198;-88
2023/06/01 10:50:16;;;;;;;6.68;5.20;;;;;;;27.24;35.54;95605.47;5005424;28;20195;-87
2023/06/01 10:52:43;;;;;;;6.40;5.10;;;;;;;27.46;35.44;95600.44;5022152;28;20195;-87
2023/06/01 10:55:29;;;;;;;7.20;5.30;;;;;;;27.49;35.11;95605.97;5005178;28;20238;-88
2023/06/01 10:58:26;;;;;;;6.13;4.95;;;;;;;27.52;34.75;95597.44;5002658;28;20298;-87
2023/06/01 11:00:54;;;;;;;5.50;4.93;;;;;;;27.42;34.99;95589.66;5003369;28;20223;-87
2023/06/01 11:04:20;;;;;;;5.65;5.00;;;;;;;27.55;34.50;95593.44;4999580;28;20286;-88
2023/06/01 11:12:39;;;;;;;7.43;4.95;;;;;;;27.99;35.15;95593.19;1273071;26;20218;-91
2023/06/01 11:15:28;;;;;;;6.07;5.10;;;;;;;28.25;34.72;95577.75;5010296;28;20203;-88
2023/06/01 11:18:39;;;;;;;5.78;4.88;;;;;;;28.27;32.88;95572.94;5012135;28;20191;-90
2023/06/01 11:21:12;;;;;;;8.23;5.43;;;;;;;28.17;32.74;95573.06;4966596;28;20239;-91
2023/06/01 11:29:48;;;;;;;7.25;6.10;;;;;;;28.45;32.39;95566.03;5012369;28;20607;-90
2023/06/01 11:32:48;;;;;;;9.07;6.95;;;;;;;28.51;33.04;95560.34;5014252;28;20203;-92
2023/06/01 11:35:37;;;;;;;6.55;6.00;;;;;;;28.49;32.07;95551.91;5011351;28;20202;-91
2023/06/01 11:38:46;;;;;;;6.07;5.15;;;;;;;28.22;31.94;95548.41;4994589;28;20203;-91
2023/06/01 11:44:07;;;;;;;6.32;5.13;;;;;;;28.28;32.24;95556.00;5002447;28;20203;-90
2023/06/01 11:46:36;;;;;;;5.70;5.20;;;;;;;28.21;32.16;95546.81;5006065;28;20322;-92
2023/06/01 11:49:17;;;;;;;6.85;5.07;;;;;;;27.74;32.67;95537.94;5010415;28;20207;-92
2023/06/01 11:51:50;;;;;;;6.15;5.30;;;;;;;27.48;32.80;95553.34;5020718;28;20194;-93
2023/06/01 12:00:23;;;;;;;6.13;5.03;;;;;;;27.81;32.62;95535.72;4969198;28;20302;-91
2023/06/01 12:09:33;;;;;;;12.13;5.53;;;;;;;27.81;32.54;95541.03;4878443;29;20637;-87
2023/06/01 12:12:05;;;;;;;5.50;5.07;;;;;;;27.65;32.90;95535.16;4993919;28;20199;-86
2023/06/01 12:14:36;;;;;;;5.43;4.90;;;;;;;27.73;33.61;95526.56;5009897;28;20282;-89
2023/06/01 12:17:49;;;;;;;5.75;5.25;;;;;;;27.64;33.23;95535.44;5006915;28;20451;-92
2023/06/01 12:20:54;;;;;;;9.77;5.28;;;;;;;27.37;33.00;95533.38;5010193;28;20635;-94
2023/06/01 12:23:35;;;;;;;6.00;5.38;;;;;;;27.47;33.99;95530.63;5005523;28;20573;-88
2023/06/01 12:31:15;;;;;;;6.20;4.97;;;;;;;27.60;33.46;95522.00;5009354;28;20214;-88
2023/06/01 12:33:43;;;;;;;5.10;4.60;;;;;;;27.72;33.90;95519.69;5007426;28;20286;-90
2023/06/01 12:36:12;;;;;;;8.02;4.75;;;;;;;27.97;33.96;95515.13;5006110;28;20219;-89
2023/06/01 12:38:51;;;;;;;5.72;5.05;;;;;;;28.02;33.28;95510.53;4997007;28;20812;-92
2023/06/01 12:41:50;;;;;;;5.63;4.53;;;;;;;28.07;32.85;95507.03;4992107;28;20219;-88
2023/06/01 12:44:21;;;;;;;6.38;5.07;;;;;;;28.12;33.20;95505.06;4988834;28;20210;-88
2023/06/01 12:46:48;;;;;;;5.45;4.70;;;;;;;28.24;32.95;95502.03;4995472;28;20227;-86
2023/06/01 12:49:16;;;;;;;10.00;5.32;;;;;;;28.48;33.43;95504.53;4998880;28;20693;-88
2023/06/01 12:51:43;;;;;;;7.07;4.95;;;;;;;28.68;33.52;95498.84;5001117;28;20195;-89
2023/06/01 12:54:12;;;;;;;6.68;4.78;;;;;;;28.78;33.00;95493.38;5001853;28;20196;-89
2023/06/01 12:57:13;;;;;;;8.35;7.47;;;;;;;28.79;32.31;95494.16;4996348;28;20223;-89
2023/06/01 13:02:29;;;;;;;6.70;4.80;;;;;;;28.21;32.42;95494.66;4937475;28;20678;-87
2023/06/01 13:05:01;;;;;;;5.53;5.03;;;;;;;27.79;33.38;95490.25;4999726;28;20199;-89
2023/06/01 13:07:28;;;;;;;7.93;4.82;;;;;;;27.95;33.74;95486.28;4999566;28;20295;-87
2023/06/01 13:09:57;;;;;;;9.13;4.75;;;;;;;28.14;33.05;95480.97;4998077;28;20205;-89
2023/06/01 13:12:24;;;;;;;4.90;4.50;;;;;;;28.41;33.43;95481.06;4998418;28;20199;-85
2023/06/01 13:14:50;;;;;;;5.28;4.57;;;;;;;28.67;32.80;95485.91;5000657;28;20195;-85
2023/06/01 13:17:19;;;;;;;5.63;4.60;;;;;;;28.79;32.19;95480.91;4994520;28;20219;-85